Time;durP1;ratioP1;P1;durP2;ratioP2;P2;SDS_P1;SDS_P2;PMS_P1;PMS_P2;Temp;Humidity;BMP_temperature;BMP_pressure;BME280_temperature;BME280_humidity;BME280_pressure;Samples;Min_cycle;Max_cycle;Signal;HPM_P1;HPM_P2
2023/12/10 00:02:26;;;;;;;71.13;31.83;;;0.60;99.90;;;;;;4953302;29;20282;-82
2023/12/10 00:05:14;;;;;;;72.20;32.73;;;0.70;99.90;;;;;;4953835;29;20692;-82
2023/12/10 00:08:01;;;;;;;78.50;33.10;;;0.70;99.90;;;;;;4940500;29;20196;-82
2023/12/10 00:10:49;;;;;;;78.37;33.50;;;0.60;99.90;;;;;;4939822;29;20303;-83
2023/12/10 00:13:36;;;;;;;80.73;34.13;;;0.60;99.90;;;;;;4953009;29;20197;-83
2023/12/10 00:16:24;;;;;;;81.20;34.37;;;0.60;99.90;;;;;;4953700;29;20205;-83
2023/12/10 00:19:11;;;;;;;75.00;33.33;;;0.70;99.90;;;;;;4953871;29;20599;-83
2023/12/10 00:21:59;;;;;;;75.03;33.23;;;0.70;99.90;;;;;;4953586;29;20213;-83
2023/12/10 00:24:47;;;;;;;83.97;34.47;;;0.70;99.90;;;;;;4954472;29;20201;-84
2023/12/10 00:27:34;;;;;;;81.70;34.37;;;0.60;99.90;;;;;;4953202;29;20223;-84
2023/12/10 00:30:21;;;;;;;84.57;35.10;;;0.60;99.90;;;;;;4954625;28;20206;-84
2023/12/10 00:33:09;;;;;;;80.73;33.60;;;0.60;99.90;;;;;;4954481;28;20580;-84
2023/12/10 00:35:57;;;;;;;81.87;34.20;;;0.50;99.90;;;;;;4939752;29;20610;-84
2023/12/10 00:38:45;;;;;;;77.93;33.17;;;0.50;99.90;;;;;;4953393;29;20228;-83
2023/12/10 00:41:32;;;;;;;76.63;33.33;;;0.40;99.90;;;;;;4952824;29;20217;-84
2023/12/10 00:44:20;;;;;;;74.73;31.27;;;0.40;99.90;;;;;;4952847;29;20202;-84
2023/12/10 00:47:07;;;;;;;73.23;31.83;;;0.40;99.90;;;;;;4953826;29;20198;-84
2023/12/10 00:49:54;;;;;;;69.80;30.93;;;0.50;99.90;;;;;;4955171;28;20283;-84
2023/12/10 00:52:42;;;;;;;71.47;30.00;;;0.50;99.90;;;;;;4953861;29;20208;-84
2023/12/10 00:55:30;;;;;;;73.57;30.67;;;0.50;99.90;;;;;;4953537;29;20284;-84
2023/12/10 00:58:17;;;;;;;68.47;30.30;;;0.50;99.90;;;;;;4953234;29;20205;-84
2023/12/10 01:01:05;;;;;;;69.90;30.03;;;0.50;99.90;;;;;;4953597;29;20341;-84
2023/12/10 01:03:53;;;;;;;70.57;30.33;;;0.50;99.90;;;;;;4954810;28;20277;-83
2023/12/10 01:06:41;;;;;;;73.37;30.83;;;0.50;99.90;;;;;;4952817;29;20211;-84
2023/12/10 01:09:29;;;;;;;65.63;29.60;;;0.50;99.90;;;;;;4940518;29;20195;-83
2023/12/10 01:12:16;;;;;;;70.97;30.57;;;0.50;99.90;;;;;;4953039;29;20599;-84
2023/12/10 01:15:10;;;;;;;68.10;28.50;;;0.50;99.90;;;;;;4954195;28;20213;-83
2023/12/10 01:18:01;;;;;;;67.57;29.07;;;0.50;99.90;;;;;;4953733;29;20617;-82
2023/12/10 01:20:49;;;;;;;67.17;28.90;;;0.60;99.90;;;;;;4953553;29;20247;-83
2023/12/10 01:23:39;;;;;;;67.97;28.77;;;0.60;99.90;;;;;;4952576;29;20230;-83
2023/12/10 01:26:27;;;;;;;66.93;28.57;;;0.50;99.90;;;;;;4954368;28;20221;-84
2023/12/10 01:29:15;;;;;;;63.17;27.43;;;0.60;99.90;;;;;;4952699;29;20592;-83
2023/12/10 01:32:03;;;;;;;63.00;26.83;;;0.50;99.90;;;;;;4953988;29;20651;-84
2023/12/10 01:34:50;;;;;;;62.77;27.20;;;0.40;99.90;;;;;;4952436;29;20288;-83
2023/12/10 01:37:38;;;;;;;64.17;26.83;;;0.40;99.90;;;;;;4953170;29;20207;-82
2023/12/10 01:40:25;;;;;;;67.07;28.43;;;0.40;99.90;;;;;;4939239;29;20218;-83
2023/12/10 01:43:17;;;;;;;59.03;25.83;;;0.40;99.90;;;;;;4953211;29;20670;-83
2023/12/10 01:46:05;;;;;;;65.03;26.53;;;0.40;99.90;;;;;;4954254;29;20208;-82
2023/12/10 01:48:55;;;;;;;57.80;25.43;;;0.40;99.90;;;;;;4953481;29;20230;-83
2023/12/10 01:51:44;;;;;;;58.50;24.57;;;0.40;99.90;;;;;;4941548;29;20670;-83
2023/12/10 01:54:31;;;;;;;61.23;26.30;;;0.40;99.90;;;;;;4956808;29;20581;-82
2023/12/10 01:57:19;;;;;;;57.80;25.57;;;0.40;99.90;;;;;;4957238;29;20241;-82
2023/12/10 02:00:07;;;;;;;58.43;24.60;;;0.40;99.90;;;;;;4957054;29;20235;-82
2023/12/10 02:02:55;;;;;;;55.67;24.80;;;0.40;99.90;;;;;;4957892;28;20664;-82
2023/12/10 02:05:43;;;;;;;56.30;24.00;;;0.30;99.90;;;;;;4943281;29;20257;-82
2023/12/10 02:08:30;;;;;;;54.23;23.00;;;0.40;99.90;;;;;;4955599;29;20194;-82
2023/12/10 02:11:18;;;;;;;56.07;23.77;;;0.30;99.90;;;;;;4955935;29;20218;-82
2023/12/10 02:14:06;;;;;;;54.83;23.27;;;0.30;99.90;;;;;;4956604;29;20705;-82
2023/12/10 02:16:54;;;;;;;55.57;23.27;;;0.30;99.90;;;;;;4956080;29;20194;-82
2023/12/10 02:19:42;;;;;;;52.53;22.60;;;0.30;99.90;;;;;;4944275;29;20688;-82
2023/12/10 02:22:30;;;;;;;55.60;23.80;;;0.30;99.90;;;;;;4943712;29;20210;-82
2023/12/10 02:25:27;;;;;;;57.40;23.13;;;0.30;99.90;;;;;;4942131;29;20197;-82
2023/12/10 02:28:21;;;;;;;52.70;23.03;;;0.30;99.90;;;;;;4956337;29;20217;-82
2023/12/10 02:31:10;;;;;;;52.07;23.07;;;0.40;99.90;;;;;;4956443;29;20205;-82
2023/12/10 02:33:57;;;;;;;52.03;22.77;;;0.30;99.90;;;;;;4957847;28;20205;-82
2023/12/10 02:36:45;;;;;;;52.80;22.67;;;0.40;99.90;;;;;;4942387;29;20201;-82
2023/12/10 02:39:32;;;;;;;46.40;20.63;;;0.30;99.90;;;;;;4956752;29;20225;-83
2023/12/10 02:42:20;;;;;;;48.07;22.03;;;0.20;99.90;;;;;;4955241;29;20222;-82
2023/12/10 02:45:08;;;;;;;47.27;21.67;;;0.20;99.90;;;;;;4942638;29;20199;-82
2023/12/10 02:47:55;;;;;;;54.00;23.00;;;0.30;99.90;;;;;;4943146;29;20198;-82
2023/12/10 02:50:43;;;;;;;49.80;21.23;;;0.30;99.90;;;;;;4957070;28;20202;-82
2023/12/10 02:53:31;;;;;;;50.70;21.17;;;0.30;99.90;;;;;;4957133;29;20198;-82
2023/12/10 02:56:18;;;;;;;48.43;21.53;;;0.20;99.90;;;;;;4955741;29;20235;-82
2023/12/10 02:59:06;;;;;;;45.03;20.23;;;0.20;99.90;;;;;;4955450;29;20287;-83
2023/12/10 03:01:53;;;;;;;46.10;20.87;;;0.30;99.90;;;;;;4954915;29;20208;-82
2023/12/10 03:04:40;;;;;;;43.37;19.37;;;0.30;99.90;;;;;;4955770;29;20195;-82
2023/12/10 03:07:28;;;;;;;47.03;19.87;;;0.30;99.90;;;;;;4942139;29;20202;-83
2023/12/10 03:10:15;;;;;;;46.27;20.87;;;0.30;99.90;;;;;;4955480;29;20198;-83
2023/12/10 03:13:03;;;;;;;46.63;19.43;;;0.30;99.90;;;;;;4955679;29;20655;-82
2023/12/10 03:15:50;;;;;;;45.77;19.90;;;0.30;99.90;;;;;;4941633;29;20278;-82
2023/12/10 03:18:38;;;;;;;49.10;20.13;;;0.30;99.90;;;;;;4941691;29;20191;-82
2023/12/10 03:21:26;;;;;;;44.67;19.50;;;0.30;99.90;;;;;;4955501;29;20277;-82
2023/12/10 03:24:13;;;;;;;45.87;20.30;;;0.20;99.90;;;;;;4954853;29;20198;-83
2023/12/10 03:27:01;;;;;;;45.77;19.83;;;0.30;99.90;;;;;;4954624;29;20237;-83
2023/12/10 03:29:48;;;;;;;47.43;20.10;;;0.30;99.90;;;;;;4954987;29;20291;-82
2023/12/10 03:32:36;;;;;;;42.07;18.70;;;0.40;99.90;;;;;;4956088;28;20205;-83
2023/12/10 03:35:24;;;;;;;45.87;19.20;;;0.40;99.90;;;;;;4955416;29;20205;-82
2023/12/10 03:38:11;;;;;;;42.77;19.70;;;0.30;99.90;;;;;;4942332;28;20213;-82
2023/12/10 03:40:58;;;;;;;41.20;18.77;;;0.40;99.90;;;;;;4954094;29;20235;-82
2023/12/10 03:43:46;;;;;;;44.37;17.93;;;0.40;99.90;;;;;;4955795;28;20194;-82
2023/12/10 03:46:33;;;;;;;45.37;19.33;;;0.30;99.90;;;;;;4955253;28;20578;-82
2023/12/10 03:49:21;;;;;;;43.17;18.27;;;0.20;99.90;;;;;;4954183;29;20213;-82
2023/12/10 03:52:08;;;;;;;39.70;18.27;;;0.20;99.90;;;;;;4953514;29;20197;-82
2023/12/10 03:54:56;;;;;;;38.57;17.97;;;0.20;99.90;;;;;;4955196;29;20196;-82
2023/12/10 03:57:44;;;;;;;43.33;17.87;;;0.20;99.90;;;;;;4955648;28;20240;-82
2023/12/10 04:00:31;;;;;;;40.27;17.40;;;0.20;99.90;;;;;;4940870;29;20249;-82
2023/12/10 04:03:19;;;;;;;39.37;16.47;;;0.20;99.90;;;;;;4954771;29;20567;-82
2023/12/10 04:06:07;;;;;;;43.00;17.70;;;0.20;99.90;;;;;;4953917;29;20223;-82
2023/12/10 04:08:54;;;;;;;36.63;17.03;;;0.20;99.90;;;;;;4954482;29;20193;-82
2023/12/10 04:11:41;;;;;;;40.67;17.43;;;0.20;99.90;;;;;;4955053;28;20632;-82
2023/12/10 04:14:29;;;;;;;41.27;17.30;;;0.20;99.90;;;;;;4953703;28;20204;-82
2023/12/10 04:17:16;;;;;;;37.80;16.57;;;0.30;99.90;;;;;;4954642;29;20721;-82
2023/12/10 04:20:05;;;;;;;40.40;16.70;;;0.30;99.90;;;;;;4953997;29;20647;-82
2023/12/10 04:22:53;;;;;;;37.20;16.63;;;0.20;99.90;;;;;;4954768;29;20201;-82
2023/12/10 04:25:45;;;;;;;39.70;15.63;;;0.30;99.90;;;;;;4955414;28;20223;-80
2023/12/10 04:28:32;;;;;;;39.80;16.30;;;0.20;99.90;;;;;;4954329;29;20253;-81
2023/12/10 04:31:19;;;;;;;34.20;16.00;;;0.10;99.90;;;;;;4955328;29;20294;-82
2023/12/10 04:34:07;;;;;;;35.40;15.67;;;0.00;99.90;;;;;;4940922;29;20198;-82
2023/12/10 04:36:54;;;;;;;40.90;15.90;;;-0.10;99.90;;;;;;4940541;29;20636;-82
2023/12/10 04:39:42;;;;;;;34.70;15.40;;;0.00;99.90;;;;;;4955163;29;20226;-82
2023/12/10 04:42:30;;;;;;;33.87;15.43;;;-0.10;99.90;;;;;;4940610;29;20247;-82
2023/12/10 04:45:17;;;;;;;36.07;15.43;;;-0.10;99.90;;;;;;4940403;29;20207;-83
2023/12/10 04:48:05;;;;;;;38.40;16.40;;;-0.10;99.90;;;;;;4940463;29;20685;-82
2023/12/10 04:50:53;;;;;;;38.07;16.33;;;-0.10;99.90;;;;;;4940676;29;20715;-82
2023/12/10 04:53:40;;;;;;;34.83;15.70;;;-0.10;99.90;;;;;;4940521;29;20244;-82
2023/12/10 04:56:29;;;;;;;36.47;16.20;;;0.00;99.90;;;;;;4953641;29;20249;-82
2023/12/10 04:59:16;;;;;;;34.63;15.67;;;0.00;99.90;;;;;;4954572;29;20286;-82
2023/12/10 05:02:04;;;;;;;33.30;14.33;;;-0.10;99.90;;;;;;4954493;29;20209;-82
2023/12/10 05:04:51;;;;;;;34.60;15.23;;;-0.10;99.90;;;;;;4953550;29;20198;-82
2023/12/10 05:07:39;;;;;;;29.40;14.43;;;-0.20;99.90;;;;;;4941382;28;20204;-82
2023/12/10 05:10:26;;;;;;;31.77;14.03;;;-0.20;99.90;;;;;;4955237;28;20200;-82
2023/12/10 05:13:18;;;;;;;30.53;13.87;;;-0.20;99.90;;;;;;4940823;29;20239;-82
2023/12/10 05:16:06;;;;;;;33.57;14.90;;;-0.30;99.90;;;;;;4940022;29;20682;-82
2023/12/10 05:18:53;;;;;;;29.00;13.07;;;-0.50;99.90;;;;;;4954643;28;20209;-82
2023/12/10 05:21:41;;;;;;;31.07;13.30;;;-0.50;99.90;;;;;;4954209;29;20226;-82
2023/12/10 05:24:28;;;;;;;32.80;14.00;;;-0.60;99.90;;;;;;4941078;29;20222;-83
2023/12/10 05:27:16;;;;;;;32.67;14.37;;;-0.60;99.90;;;;;;4955713;28;20216;-82
2023/12/10 05:30:04;;;;;;;34.70;14.70;;;-0.70;99.90;;;;;;4956816;29;20261;-84
2023/12/10 05:32:52;;;;;;;34.50;15.07;;;-0.60;99.90;;;;;;4943611;29;20206;-83
2023/12/10 05:35:40;;;;;;;33.53;14.80;;;-0.60;99.90;;;;;;4944769;28;20285;-83
2023/12/10 05:38:28;;;;;;;33.90;14.53;;;-0.60;99.90;;;;;;4943231;29;20670;-82
2023/12/10 05:41:15;;;;;;;33.27;14.60;;;-0.60;99.90;;;;;;4956756;29;20698;-83
2023/12/10 05:44:03;;;;;;;31.17;14.33;;;-0.60;99.90;;;;;;4957136;29;20205;-84
2023/12/10 05:46:50;;;;;;;32.80;14.20;;;-0.80;99.90;;;;;;4956478;29;20201;-83
2023/12/10 05:49:37;;;;;;;36.97;15.43;;;-0.80;99.90;;;;;;4943288;29;20572;-83
2023/12/10 05:52:25;;;;;;;37.63;15.53;;;-0.80;99.90;;;;;;4957056;29;20489;-82
2023/12/10 05:55:13;;;;;;;34.10;14.60;;;-0.80;99.90;;;;;;4943108;29;20282;-82
2023/12/10 05:58:00;;;;;;;35.97;15.47;;;-0.80;99.90;;;;;;4943015;29;20799;-83
2023/12/10 06:00:48;;;;;;;37.40;16.37;;;-0.80;99.90;;;;;;4956077;29;20285;-83
2023/12/10 06:03:36;;;;;;;36.10;15.47;;;-0.70;99.90;;;;;;4955903;29;20583;-83
2023/12/10 06:06:24;;;;;;;34.27;16.07;;;-0.70;99.90;;;;;;4956116;29;20235;-82
2023/12/10 06:09:12;;;;;;;32.60;14.20;;;-0.80;99.90;;;;;;4942926;29;20207;-82
2023/12/10 06:11:59;;;;;;;37.00;15.90;;;-0.80;99.90;;;;;;4942391;29;20223;-83
2023/12/10 06:14:47;;;;;;;39.73;17.07;;;-0.90;99.90;;;;;;4955638;29;20205;-83
2023/12/10 06:17:34;;;;;;;37.27;16.10;;;-0.80;99.90;;;;;;4957014;28;20202;-83
2023/12/10 06:20:22;;;;;;;36.90;16.03;;;-0.90;99.90;;;;;;4956809;29;20229;-84
2023/12/10 06:23:09;;;;;;;38.97;16.93;;;-0.90;99.90;;;;;;4956199;29;20687;-84
2023/12/10 06:25:57;;;;;;;43.10;16.90;;;-0.90;99.90;;;;;;4955946;29;20240;-82
2023/12/10 06:28:44;;;;;;;39.83;17.00;;;-0.70;99.90;;;;;;4955559;29;20670;-81
2023/12/10 06:31:32;;;;;;;40.00;16.57;;;-0.70;99.90;;;;;;4942478;29;20725;-83
2023/12/10 06:34:19;;;;;;;37.67;16.30;;;-0.70;99.90;;;;;;4955532;29;20679;-83
2023/12/10 06:37:07;;;;;;;38.40;16.27;;;-0.60;99.90;;;;;;4956453;28;20210;-83
2023/12/10 06:39:55;;;;;;;40.10;16.77;;;-0.50;99.90;;;;;;4941844;29;20222;-83
2023/12/10 06:42:42;;;;;;;36.40;16.00;;;-0.60;99.90;;;;;;4942373;29;20198;-82
2023/12/10 06:45:30;;;;;;;39.57;17.10;;;-0.70;99.90;;;;;;4954956;29;20204;-82
2023/12/10 06:48:18;;;;;;;41.17;16.40;;;-0.70;99.90;;;;;;4954791;29;20281;-82
2023/12/10 06:51:06;;;;;;;43.93;17.43;;;-0.70;99.90;;;;;;4942702;29;20201;-82
2023/12/10 06:53:53;;;;;;;39.37;16.07;;;-0.70;99.90;;;;;;4955719;29;20283;-82
2023/12/10 06:56:41;;;;;;;40.63;16.63;;;-0.70;99.90;;;;;;4942641;28;20249;-82
2023/12/10 06:59:28;;;;;;;41.27;16.77;;;-0.70;99.90;;;;;;4955547;29;20232;-82
2023/12/10 07:02:16;;;;;;;38.70;16.77;;;-0.80;99.90;;;;;;4955706;29;20228;-81
2023/12/10 07:05:04;;;;;;;41.53;17.70;;;-0.80;99.90;;;;;;4954950;29;20210;-80
2023/12/10 07:07:51;;;;;;;41.53;17.13;;;-0.80;99.90;;;;;;4955255;29;20572;-81
2023/12/10 07:10:39;;;;;;;38.80;16.93;;;-0.80;99.90;;;;;;4941983;29;20701;-81
2023/12/10 07:13:26;;;;;;;40.47;17.57;;;-0.70;99.90;;;;;;4942105;29;20194;-81
2023/12/10 07:16:13;;;;;;;41.33;17.17;;;-0.70;99.90;;;;;;4955546;29;20542;-82
2023/12/10 07:19:01;;;;;;;44.37;18.47;;;-0.80;99.90;;;;;;4956054;29;20228;-81
2023/12/10 07:21:52;;;;;;;42.03;17.23;;;-0.80;99.90;;;;;;4955285;29;20219;-81
2023/12/10 07:24:40;;;;;;;44.70;17.87;;;-0.90;99.90;;;;;;4955612;29;20327;-82
2023/12/10 07:27:28;;;;;;;41.70;16.33;;;-0.90;99.90;;;;;;4956104;29;20583;-82
2023/12/10 07:30:15;;;;;;;42.83;18.57;;;-0.90;99.90;;;;;;4955727;29;20202;-82
2023/12/10 07:33:03;;;;;;;44.33;18.00;;;-0.80;99.90;;;;;;4942042;29;20274;-81
2023/12/10 07:35:51;;;;;;;48.83;18.50;;;-0.80;99.90;;;;;;4954948;29;20244;-81
2023/12/10 07:38:38;;;;;;;44.50;18.50;;;-0.70;99.90;;;;;;4954013;29;20278;-80
2023/12/10 07:41:26;;;;;;;44.37;19.17;;;-0.70;99.90;;;;;;4963764;29;20223;-81
2023/12/10 07:44:13;;;;;;;48.73;19.00;;;-0.70;99.90;;;;;;4971495;29;20199;-78
2023/12/10 07:47:02;;;;;;;45.17;19.63;;;-0.60;99.90;;;;;;4972833;28;20263;-80
2023/12/10 07:49:49;;;;;;;47.50;20.43;;;-0.60;99.90;;;;;;4958831;29;20225;-81
2023/12/10 07:52:37;;;;;;;47.10;18.37;;;-0.60;99.90;;;;;;4957986;29;20214;-81
2023/12/10 07:55:24;;;;;;;45.63;20.00;;;-0.60;99.90;;;;;;4954805;29;20206;-81
2023/12/10 07:58:12;;;;;;;47.93;19.97;;;-0.50;99.90;;;;;;4955558;29;20285;-81
2023/12/10 08:01:00;;;;;;;46.90;20.43;;;-0.40;99.90;;;;;;4955652;28;20221;-81
2023/12/10 08:03:48;;;;;;;52.97;21.00;;;-0.40;99.90;;;;;;4940482;29;20203;-82
2023/12/10 08:06:35;;;;;;;49.47;20.83;;;-0.30;99.90;;;;;;4955493;28;20194;-82
2023/12/10 08:09:22;;;;;;;51.23;21.30;;;-0.40;99.90;;;;;;4953928;29;20636;-82
2023/12/10 08:12:10;;;;;;;47.53;20.80;;;-0.50;99.90;;;;;;4953701;29;20218;-82
2023/12/10 08:14:58;;;;;;;49.73;20.80;;;-0.40;99.90;;;;;;4940002;29;20194;-81
2023/12/10 08:17:45;;;;;;;49.83;20.23;;;-0.40;99.90;;;;;;4955040;29;20201;-81
2023/12/10 08:20:33;;;;;;;51.07;21.80;;;-0.40;99.90;;;;;;4954052;29;20215;-81
2023/12/10 08:23:21;;;;;;;52.23;21.17;;;-0.40;99.90;;;;;;4940072;29;20204;-81
2023/12/10 08:26:08;;;;;;;50.13;20.53;;;-0.40;99.90;;;;;;4955273;28;20290;-81
2023/12/10 08:28:56;;;;;;;46.33;19.73;;;-0.40;99.90;;;;;;4954816;28;20211;-82
2023/12/10 08:31:43;;;;;;;52.10;21.13;;;-0.50;99.90;;;;;;4953620;29;20648;-82
2023/12/10 08:34:31;;;;;;;49.97;20.77;;;-0.50;99.90;;;;;;4953548;29;20246;-82
2023/12/10 08:37:18;;;;;;;50.17;21.53;;;-0.40;99.90;;;;;;4939888;29;20289;-81
2023/12/10 08:40:06;;;;;;;47.30;21.23;;;-0.50;99.90;;;;;;4954465;29;20195;-81
2023/12/10 08:42:53;;;;;;;52.27;21.93;;;-0.40;99.90;;;;;;4953733;29;20320;-81
2023/12/10 08:45:41;;;;;;;51.83;21.47;;;-0.30;99.90;;;;;;4954472;29;20221;-82
2023/12/10 08:48:30;;;;;;;49.20;21.50;;;-0.30;99.90;;;;;;4941091;29;20203;-81
2023/12/10 08:51:18;;;;;;;49.27;21.63;;;-0.20;99.90;;;;;;4954857;29;20197;-81
2023/12/10 08:54:05;;;;;;;52.00;20.83;;;-0.20;99.90;;;;;;4956425;29;20196;-81
2023/12/10 08:56:52;;;;;;;47.93;20.77;;;-0.10;99.90;;;;;;4955904;28;20321;-81
2023/12/10 08:59:40;;;;;;;53.97;21.43;;;-0.20;99.90;;;;;;4954267;29;20201;-82
2023/12/10 09:02:28;;;;;;;48.40;21.53;;;-0.20;99.90;;;;;;4955694;29;20691;-82
2023/12/10 09:05:17;;;;;;;48.63;21.10;;;-0.10;99.90;;;;;;4944787;28;20204;-82
2023/12/10 09:08:05;;;;;;;53.53;22.27;;;-0.10;99.90;;;;;;4956727;29;20201;-81
2023/12/10 09:10:53;;;;;;;48.67;21.17;;;-0.10;99.90;;;;;;4957742;29;20605;-82
2023/12/10 09:13:41;;;;;;;52.47;21.80;;;-0.10;99.90;;;;;;4957754;29;20223;-82
2023/12/10 09:16:28;;;;;;;52.60;21.33;;;-0.20;99.90;;;;;;4958155;29;20205;-83
2023/12/10 09:19:17;;;;;;;51.13;21.23;;;-0.20;99.90;;;;;;4958904;28;20322;-82
2023/12/10 09:22:04;;;;;;;47.13;21.10;;;-0.10;99.90;;;;;;4942947;29;20217;-80
2023/12/10 09:24:52;;;;;;;51.13;21.93;;;-0.10;99.90;;;;;;4958321;28;20569;-79
2023/12/10 09:27:40;;;;;;;55.07;21.47;;;-0.20;99.90;;;;;;4957194;29;20279;-81
2023/12/10 09:30:27;;;;;;;52.90;22.53;;;-0.10;99.90;;;;;;4943508;29;20196;-81
2023/12/10 09:33:15;;;;;;;48.60;21.80;;;-0.10;99.90;;;;;;4958256;28;20688;-82
2023/12/10 09:36:02;;;;;;;60.60;22.83;;;0.00;99.90;;;;;;4957813;28;20190;-81
2023/12/10 09:38:50;;;;;;;53.73;22.53;;;0.00;99.90;;;;;;4942879;29;20274;-81
2023/12/10 09:41:37;;;;;;;51.23;21.60;;;0.00;99.90;;;;;;4956348;29;20273;-82
2023/12/10 09:44:24;;;;;;;52.50;21.90;;;0.10;99.90;;;;;;4955934;29;20651;-81
2023/12/10 09:47:12;;;;;;;51.37;21.97;;;0.20;99.90;;;;;;4956358;29;20267;-81
2023/12/10 09:50:00;;;;;;;50.97;21.73;;;0.20;99.90;;;;;;4956653;29;20287;-80
2023/12/10 09:52:47;;;;;;;49.87;21.63;;;0.20;99.90;;;;;;4956659;29;20206;-83
2023/12/10 09:55:35;;;;;;;51.47;21.60;;;0.30;99.90;;;;;;4957517;29;20237;-81
2023/12/10 09:58:23;;;;;;;47.93;21.90;;;0.40;99.90;;;;;;4943238;29;20224;-82
2023/12/10 10:01:10;;;;;;;48.33;22.17;;;0.50;99.90;;;;;;4956936;29;20222;-82
2023/12/10 10:03:59;;;;;;;52.70;21.67;;;0.50;99.90;;;;;;4957507;29;20282;-81
2023/12/10 10:06:47;;;;;;;50.57;21.73;;;0.50;99.90;;;;;;4943036;29;20209;-82
2023/12/10 10:09:38;;;;;;;50.17;21.47;;;0.50;99.90;;;;;;4955388;29;20785;-80
2023/12/10 10:12:30;;;;;;;48.40;21.73;;;0.50;99.90;;;;;;4941927;29;20307;-81
2023/12/10 10:15:29;;;;;;;48.43;21.87;;;0.60;99.90;;;;;;4957579;28;20211;-81
2023/12/10 10:18:16;;;;;;;47.13;20.67;;;0.60;99.90;;;;;;4942802;29;20203;-81
2023/12/10 10:21:05;;;;;;;50.97;21.37;;;0.60;99.90;;;;;;4956806;29;20227;-81
2023/12/10 10:23:53;;;;;;;45.37;21.40;;;0.70;99.90;;;;;;4957094;29;20198;-82
2023/12/10 10:26:40;;;;;;;51.33;22.17;;;0.70;99.90;;;;;;4942662;29;20593;-80
2023/12/10 10:29:28;;;;;;;47.57;21.40;;;0.60;99.90;;;;;;4955269;29;20245;-81
2023/12/10 10:32:18;;;;;;;44.57;20.83;;;0.50;99.90;;;;;;4942688;29;20287;-81
2023/12/10 10:35:07;;;;;;;46.77;20.17;;;0.50;99.90;;;;;;4941863;29;20691;-80
2023/12/10 10:37:56;;;;;;;46.43;21.50;;;0.60;99.90;;;;;;4942942;29;20656;-80
2023/12/10 10:40:43;;;;;;;48.90;21.10;;;0.60;99.90;;;;;;4955814;29;20267;-80
2023/12/10 10:43:31;;;;;;;50.03;22.40;;;0.60;99.90;;;;;;4957063;28;20213;-82
2023/12/10 10:46:20;;;;;;;46.27;21.17;;;0.60;99.90;;;;;;4942374;29;20289;-81
2023/12/10 10:49:08;;;;;;;51.77;22.00;;;0.60;99.90;;;;;;4956777;29;20592;-83
2023/12/10 10:51:58;;;;;;;53.10;23.27;;;0.50;99.90;;;;;;4942957;29;20204;-81
2023/12/10 10:54:47;;;;;;;43.40;20.77;;;0.50;99.90;;;;;;4956209;29;20204;-81
2023/12/10 10:57:36;;;;;;;48.40;21.73;;;0.50;99.90;;;;;;4956655;28;20249;-81
2023/12/10 11:00:30;;;;;;;45.70;21.70;;;0.50;99.90;;;;;;4954974;29;20665;-82
2023/12/10 11:03:18;;;;;;;50.53;22.73;;;0.60;99.90;;;;;;4957001;28;20288;-82
2023/12/10 11:06:09;;;;;;;53.57;23.40;;;0.40;99.90;;;;;;4955693;29;20203;-83
2023/12/10 11:09:00;;;;;;;52.37;23.13;;;0.40;99.90;;;;;;4941877;29;20195;-82
2023/12/10 11:11:49;;;;;;;47.67;21.27;;;0.40;99.90;;;;;;4954947;29;20324;-82
2023/12/10 11:14:37;;;;;;;52.90;22.03;;;0.50;99.90;;;;;;4956547;28;20231;-82
2023/12/10 11:17:24;;;;;;;49.40;21.97;;;0.50;99.90;;;;;;4954824;29;20819;-82
2023/12/10 11:20:40;;;;;;;52.37;21.43;;;0.40;99.90;;;;;;4955018;29;20205;-82
2023/12/10 11:23:28;;;;;;;47.33;21.27;;;0.40;99.90;;;;;;4960474;28;20296;-81
2023/12/10 11:26:18;;;;;;;51.47;22.80;;;0.40;99.90;;;;;;4954596;29;20255;-81
2023/12/10 11:29:06;;;;;;;62.67;23.23;;;0.30;99.90;;;;;;4953665;29;20694;-82
2023/12/10 11:31:54;;;;;;;46.63;21.30;;;0.30;99.90;;;;;;4941187;29;20688;-82
2023/12/10 11:34:42;;;;;;;47.87;21.10;;;0.40;99.90;;;;;;4954311;29;20224;-82
2023/12/10 11:37:30;;;;;;;47.37;21.90;;;0.50;99.90;;;;;;4955414;28;20199;-83
2023/12/10 11:40:18;;;;;;;48.00;20.13;;;0.40;99.90;;;;;;4954332;29;20199;-83
2023/12/10 11:43:06;;;;;;;47.77;19.97;;;0.30;99.90;;;;;;4955380;28;20315;-83
2023/12/10 11:45:56;;;;;;;48.37;20.63;;;0.40;99.90;;;;;;4941169;29;20598;-83
2023/12/10 11:48:44;;;;;;;43.50;19.60;;;0.40;99.90;;;;;;4953829;29;20200;-83
2023/12/10 11:51:32;;;;;;;42.30;18.93;;;0.50;99.90;;;;;;4954713;29;20670;-85
2023/12/10 11:54:20;;;;;;;44.90;19.83;;;0.60;99.90;;;;;;4941035;29;20477;-85
2023/12/10 11:57:07;;;;;;;44.00;20.03;;;0.70;99.90;;;;;;4955446;28;20240;-85
2023/12/10 11:59:56;;;;;;;43.33;18.87;;;0.80;99.90;;;;;;4941643;29;20607;-84
2023/12/10 12:02:44;;;;;;;45.53;19.90;;;0.80;99.90;;;;;;4954133;29;20313;-84
2023/12/10 12:05:32;;;;;;;42.33;17.83;;;0.90;99.90;;;;;;4941682;29;20287;-82
2023/12/10 12:08:28;;;;;;;45.77;19.80;;;0.80;99.90;;;;;;4954018;29;20721;-83
2023/12/10 12:11:16;;;;;;;44.13;19.20;;;0.70;99.90;;;;;;4955050;29;20588;-82
2023/12/10 12:14:11;;;;;;;39.53;17.97;;;0.70;99.90;;;;;;4954731;29;20204;-82
2023/12/10 12:16:59;;;;;;;43.17;18.77;;;0.60;99.90;;;;;;4954408;29;20665;-83
2023/12/10 12:19:47;;;;;;;40.53;17.93;;;0.60;99.90;;;;;;4953689;29;20204;-82
2023/12/10 12:22:34;;;;;;;40.43;18.10;;;0.60;99.90;;;;;;4953713;29;20221;-81
2023/12/10 12:25:23;;;;;;;40.97;18.13;;;0.60;99.90;;;;;;4953600;29;20743;-82
2023/12/10 12:28:10;;;;;;;46.63;18.53;;;0.60;99.90;;;;;;4954486;29;20208;-82
2023/12/10 12:30:58;;;;;;;40.83;18.27;;;0.60;99.90;;;;;;4953564;29;20254;-82
2023/12/10 12:33:45;;;;;;;44.60;18.33;;;0.60;99.90;;;;;;4953430;29;20197;-81
2023/12/10 12:36:33;;;;;;;44.17;19.13;;;0.60;99.90;;;;;;4953630;28;20203;-82
2023/12/10 12:39:21;;;;;;;41.23;18.20;;;0.60;99.90;;;;;;4939797;29;20292;-82
2023/12/10 12:42:08;;;;;;;41.30;18.80;;;0.60;99.90;;;;;;4953600;29;20223;-81
2023/12/10 12:44:56;;;;;;;41.93;18.33;;;0.60;99.90;;;;;;4953144;29;20568;-82
2023/12/10 12:47:43;;;;;;;40.70;18.20;;;0.50;99.90;;;;;;4940163;29;20228;-82
2023/12/10 12:50:32;;;;;;;40.73;18.77;;;0.60;99.90;;;;;;4953847;29;20200;-82
2023/12/10 12:53:19;;;;;;;41.77;19.03;;;0.60;99.90;;;;;;4954555;29;20198;-84
2023/12/10 12:56:07;;;;;;;47.27;19.37;;;0.50;99.90;;;;;;4952492;29;20235;-83
2023/12/10 12:58:54;;;;;;;42.03;18.93;;;0.50;99.90;;;;;;4954145;28;20565;-82
2023/12/10 13:01:42;;;;;;;43.17;18.90;;;0.50;99.90;;;;;;4954304;29;20687;-83
2023/12/10 13:04:30;;;;;;;45.17;19.67;;;0.50;99.90;;;;;;4938738;29;20223;-81
2023/12/10 13:07:18;;;;;;;44.20;19.07;;;0.60;99.90;;;;;;4953339;29;20197;-82
2023/12/10 13:10:06;;;;;;;45.27;19.63;;;0.60;99.90;;;;;;4940618;29;20574;-82
2023/12/10 13:12:54;;;;;;;41.07;19.03;;;0.60;99.90;;;;;;4953123;29;20197;-81
2023/12/10 13:15:41;;;;;;;43.97;18.70;;;0.50;99.90;;;;;;4953081;29;20196;-81
2023/12/10 13:18:29;;;;;;;47.37;19.10;;;0.60;99.90;;;;;;4953326;29;20198;-82
2023/12/10 13:21:16;;;;;;;41.53;18.47;;;0.60;99.90;;;;;;4939259;29;20198;-81
2023/12/10 13:24:07;;;;;;;45.47;18.50;;;0.60;99.90;;;;;;4939753;29;20368;-81
2023/12/10 13:26:55;;;;;;;41.10;18.50;;;0.60;99.90;;;;;;4953011;29;20219;-81
2023/12/10 13:29:42;;;;;;;49.17;19.57;;;0.60;99.90;;;;;;4946436;29;20205;-82
2023/12/10 13:32:30;;;;;;;48.00;19.63;;;0.60;99.90;;;;;;4954387;29;20658;-81
2023/12/10 13:35:17;;;;;;;44.93;18.23;;;0.50;99.90;;;;;;4954136;28;20490;-82
2023/12/10 13:38:05;;;;;;;41.47;18.53;;;0.60;99.90;;;;;;4953482;29;20203;-82
2023/12/10 13:40:52;;;;;;;43.57;18.87;;;0.50;99.90;;;;;;4962807;29;20586;-82
2023/12/10 13:43:40;;;;;;;45.13;18.73;;;0.60;99.90;;;;;;4939793;29;20207;-83
2023/12/10 13:46:27;;;;;;;47.27;20.40;;;0.60;99.90;;;;;;4954491;28;20679;-83
2023/12/10 13:49:15;;;;;;;46.37;19.87;;;0.60;99.90;;;;;;4958608;28;20541;-82
2023/12/10 13:52:03;;;;;;;41.93;19.53;;;0.60;99.90;;;;;;4957689;28;20202;-83
2023/12/10 13:54:51;;;;;;;46.57;18.93;;;0.60;99.90;;;;;;4943071;29;20280;-83
2023/12/10 13:57:38;;;;;;;42.97;19.07;;;0.60;99.90;;;;;;4956612;29;20188;-82
2023/12/10 14:00:26;;;;;;;40.27;18.53;;;0.50;99.90;;;;;;4957520;29;20212;-82
2023/12/10 14:03:14;;;;;;;45.30;19.53;;;0.50;99.90;;;;;;4942811;29;20353;-82
2023/12/10 14:06:04;;;;;;;43.20;19.63;;;0.60;99.90;;;;;;4956197;29;20580;-81
2023/12/10 14:08:53;;;;;;;47.67;19.97;;;0.50;99.90;;;;;;4957590;28;20202;-82
2023/12/10 14:11:41;;;;;;;49.20;20.20;;;0.50;99.90;;;;;;4955900;29;20705;-81
2023/12/10 14:14:31;;;;;;;47.67;19.83;;;0.50;99.90;;;;;;4955587;29;20204;-83
2023/12/10 14:17:19;;;;;;;48.20;20.77;;;0.50;99.90;;;;;;4956504;29;20205;-82
2023/12/10 14:20:06;;;;;;;46.33;20.53;;;0.50;99.90;;;;;;4956388;29;20290;-80